Time;durP1;ratioP1;P1;durP2;ratioP2;P2;SDS_P1;SDS_P2;PMS_P1;PMS_P2;Temp;Humidity;BMP_temperature;BMP_pressure;BME280_temperature;BME280_humidity;BME280_pressure;Samples;Min_cycle;Max_cycle;Signal;HPM_P1;HPM_P2
2021/09/12 00:01:16;;;;;;;50.10;26.12;;;;;;;13.98;71.07;100785.59;1750159;82;20845;-65
2021/09/12 00:03:43;;;;;;;54.98;26.70;;;;;;;13.97;71.06;100790.52;1750295;82;21398;-65
2021/09/12 00:06:10;;;;;;;51.60;27.20;;;;;;;13.95;71.06;100790.61;1750144;82;20940;-66
2021/09/12 00:08:37;;;;;;;50.63;26.42;;;;;;;13.89;71.16;100780.50;1750373;82;21964;-64
2021/09/12 00:11:06;;;;;;;50.35;26.75;;;;;;;13.89;71.16;100780.50;1750053;82;21338;-65
2021/09/12 00:13:33;;;;;;;44.27;25.75;;;;;;;13.88;71.33;100784.10;1750333;82;21371;-65
2021/09/12 00:16:02;;;;;;;47.27;25.27;;;;;;;13.88;71.27;100781.47;1750125;82;20931;-64
2021/09/12 00:18:29;;;;;;;42.38;26.17;;;;;;;13.81;71.20;100781.55;1750100;80;20888;-65
2021/09/12 00:20:57;;;;;;;43.78;25.40;;;;;;;13.76;71.55;100784.95;1750223;80;20852;-64
2021/09/12 00:23:24;;;;;;;45.90;25.70;;;;;;;13.78;72.15;100782.58;1750024;82;20920;-64
2021/09/12 00:25:51;;;;;;;50.70;27.90;;;;;;;13.78;72.15;100782.58;1750265;82;20972;-65
2021/09/12 00:28:19;;;;;;;44.60;24.90;;;;;;;13.80;71.84;100778.52;1750211;82;20849;-65
2021/09/12 00:30:48;;;;;;;53.02;27.73;;;;;;;13.82;71.74;100787.16;1750058;82;20853;-64
2021/09/12 00:33:14;;;;;;;46.42;26.23;;;;;;;13.82;71.58;100779.26;1750022;82;23271;-64
2021/09/12 00:35:41;;;;;;;43.90;24.90;;;;;;;13.82;71.52;100778.78;1750085;82;21006;-65
2021/09/12 00:38:08;;;;;;;48.08;25.57;;;;;;;13.81;71.42;100780.22;1750328;80;21330;-65
2021/09/12 00:40:35;;;;;;;41.70;23.85;;;;;;;13.81;71.33;100774.95;1750134;82;20924;-65
2021/09/12 00:43:03;;;;;;;40.15;24.47;;;;;;;13.79;71.27;100772.90;1750381;82;21382;-65
2021/09/12 00:45:30;;;;;;;45.40;25.65;;;;;;;13.78;71.27;100775.98;1750132;80;21101;-66
2021/09/12 00:47:58;;;;;;;41.98;24.75;;;;;;;13.78;71.28;100778.63;1750014;81;20849;-65
2021/09/12 00:50:27;;;;;;;43.02;24.18;;;;;;;13.77;71.45;100774.80;1750249;82;21379;-65
2021/09/12 00:52:54;;;;;;;49.20;25.90;;;;;;;13.76;71.63;100777.92;1750120;82;20987;-65
2021/09/12 00:55:21;;;;;;;42.55;26.55;;;;;;;13.75;71.70;100776.22;1750500;80;21489;-65
2021/09/12 00:57:48;;;;;;;37.25;24.63;;;;;;;13.75;71.76;100780.17;1722565;82;21214;-66
2021/09/12 01:00:16;;;;;;;46.42;24.72;;;;;;;13.73;71.88;100778.11;1750093;82;20885;-66
2021/09/12 01:02:43;;;;;;;43.63;25.20;;;;;;;13.69;71.73;100780.59;1750251;80;20872;-63
2021/09/12 01:05:11;;;;;;;48.68;26.50;;;;;;;13.63;71.89;100782.37;1750131;82;21423;-66
2021/09/12 01:07:41;;;;;;;44.55;25.43;;;;;;;13.54;72.22;100777.27;1750142;82;20928;-64
2021/09/12 01:10:10;;;;;;;45.60;27.15;;;;;;;13.55;72.54;100780.73;1750133;82;21350;-65
2021/09/12 01:12:37;;;;;;;37.48;24.75;;;;;;;13.56;72.52;100775.81;1750046;80;20876;-64
2021/09/12 01:15:07;;;;;;;47.80;26.27;;;;;;;13.58;72.40;100773.44;1750126;82;20908;-65
2021/09/12 01:17:34;;;;;;;42.17;25.55;;;;;;;13.61;72.21;100782.47;1750073;82;20889;-65
2021/09/12 01:20:03;;;;;;;41.20;24.77;;;;;;;13.63;72.05;100781.88;1750014;82;20924;-65
2021/09/12 01:22:30;;;;;;;36.25;22.90;;;;;;;13.64;71.87;100784.88;1750475;82;21180;-65
2021/09/12 01:24:57;;;;;;;43.42;25.75;;;;;;;13.65;71.70;100781.30;1750061;82;20876;-65
2021/09/12 01:27:24;;;;;;;40.00;23.45;;;;;;;13.65;71.53;100775.17;1750111;82;20904;-65
2021/09/12 01:29:50;;;;;;;39.45;24.20;;;;;;;13.64;71.49;100779.60;1750366;80;21037;-65
2021/09/12 01:32:17;;;;;;;47.40;25.32;;;;;;;13.61;71.38;100779.83;1750201;82;20880;-66
2021/09/12 01:34:44;;;;;;;36.25;23.42;;;;;;;13.57;71.74;100773.56;1750524;82;21081;-64
2021/09/12 01:37:11;;;;;;;38.08;22.22;;;;;;;13.56;72.01;100782.41;1750226;80;20959;-65
2021/09/12 01:39:38;;;;;;;45.92;25.02;;;;;;;13.56;72.18;100785.04;1750449;82;20916;-64
2021/09/12 01:42:05;;;;;;;41.25;23.55;;;;;;;13.57;72.22;100782.31;1750275;82;20893;-65
2021/09/12 01:44:33;;;;;;;37.17;23.32;;;;;;;13.56;72.19;100786.36;1750242;82;20940;-65
2021/09/12 01:46:59;;;;;;;37.70;23.00;;;;;;;13.56;72.19;100787.67;1743875;80;21147;-65
2021/09/12 01:49:27;;;;;;;42.80;23.87;;;;;;;13.54;72.20;100789.13;1736192;82;20917;-64
2021/09/12 01:51:54;;;;;;;41.08;24.20;;;;;;;13.53;72.16;100783.47;1736241;81;21558;-65
2021/09/12 01:54:21;;;;;;;45.50;26.82;;;;;;;13.53;72.14;100778.68;1736246;82;20909;-65
2021/09/12 01:56:48;;;;;;;42.38;27.15;;;;;;;13.50;72.06;100778.42;1736286;82;20866;-64
2021/09/12 01:59:15;;;;;;;43.23;24.32;;;;;;;13.50;71.86;100788.12;1736362;82;21869;-65
2021/09/12 02:01:42;;;;;;;42.48;25.55;;;;;;;13.45;71.67;100782.70;1736263;82;20984;-65
2021/09/12 02:04:09;;;;;;;45.50;25.23;;;;;;;13.44;71.77;100780.16;1736251;82;20932;-65
2021/09/12 02:06:37;;;;;;;44.33;23.80;;;;;;;13.44;71.78;100774.89;1736080;81;20893;-65
2021/09/12 02:09:06;;;;;;;42.90;25.05;;;;;;;13.43;71.73;100772.73;1736193;82;20898;-64
2021/09/12 02:11:33;;;;;;;44.63;23.22;;;;;;;13.44;71.66;100770.94;1736262;82;21143;-65
2021/09/12 02:14:00;;;;;;;38.42;22.50;;;;;;;13.44;71.56;100769.63;1736159;82;21091;-64
2021/09/12 02:16:29;;;;;;;36.77;23.22;;;;;;;13.42;71.51;100772.84;1715927;82;20912;-64
2021/09/12 02:18:56;;;;;;;36.95;22.77;;;;;;;13.42;71.53;100777.62;1736488;82;21451;-65
2021/09/12 02:21:25;;;;;;;34.10;22.30;;;;;;;13.41;71.44;100769.37;1736177;82;20930;-64
2021/09/12 02:23:52;;;;;;;37.67;22.55;;;;;;;13.37;71.57;100773.64;1736251;82;21151;-64
2021/09/12 02:26:20;;;;;;;50.23;24.40;;;;;;;13.36;71.81;100773.25;1736156;82;20861;-64
2021/09/12 02:28:47;;;;;;;42.05;22.87;;;;;;;13.36;71.94;100775.89;1736136;81;20889;-64
2021/09/12 02:31:14;;;;;;;35.40;22.80;;;;;;;13.36;71.95;100775.44;1736425;82;21457;-65
2021/09/12 02:33:41;;;;;;;37.15;23.57;;;;;;;13.37;71.90;100779.74;1736133;82;20961;-64
2021/09/12 02:36:08;;;;;;;34.53;23.42;;;;;;;13.37;71.93;100778.91;1736206;81;21146;-65
2021/09/12 02:38:34;;;;;;;39.73;21.42;;;;;;;13.37;72.00;100777.59;1736181;82;20984;-65
2021/09/12 02:41:01;;;;;;;46.08;24.02;;;;;;;13.37;72.01;100778.91;1736277;82;20976;-64
2021/09/12 02:43:29;;;;;;;39.35;23.38;;;;;;;13.36;72.15;100782.02;1736115;82;20854;-65
2021/09/12 02:45:59;;;;;;;42.80;23.55;;;;;;;13.35;72.19;100784.75;1736205;81;21351;-66
2021/09/12 02:48:26;;;;;;;42.48;25.65;;;;;;;13.32;72.21;100781.86;1743799;81;21813;-65
2021/09/12 02:50:52;;;;;;;43.35;24.82;;;;;;;13.32;72.09;100783.63;1744437;82;20944;-64
2021/09/12 02:53:20;;;;;;;42.85;22.62;;;;;;;13.24;72.06;100788.92;1744322;82;20912;-65
2021/09/12 02:55:47;;;;;;;38.63;22.65;;;;;;;13.22;72.43;100782.92;1744345;82;20889;-65
2021/09/12 02:58:14;;;;;;;36.38;21.87;;;;;;;13.24;72.47;100788.92;1744385;82;20971;-65
2021/09/12 03:00:41;;;;;;;31.82;21.50;;;;;;;13.25;72.65;100781.86;1744361;82;21512;-64
2021/09/12 03:03:09;;;;;;;36.48;24.57;;;;;;;13.28;72.48;100777.75;1744303;82;20849;-65
2021/09/12 03:05:36;;;;;;;39.70;22.98;;;;;;;13.32;72.31;100777.05;1744594;82;20877;-64
2021/09/12 03:08:06;;;;;;;33.75;22.00;;;;;;;13.34;71.98;100778.66;1744433;82;21384;-64
2021/09/12 03:10:33;;;;;;;42.15;23.22;;;;;;;13.35;71.77;100778.17;1744749;82;20913;-64
2021/09/12 03:13:02;;;;;;;32.20;21.35;;;;;;;13.34;71.62;100783.92;1744307;82;20979;-65
2021/09/12 03:15:30;;;;;;;34.98;22.17;;;;;;;13.33;71.65;100780.89;1744196;81;20956;-65
2021/09/12 03:17:57;;;;;;;37.28;21.93;;;;;;;13.32;71.93;100781.86;1744366;82;20853;-64
2021/09/12 03:20:24;;;;;;;31.97;21.25;;;;;;;13.30;72.02;100782.92;1744300;82;20937;-65
2021/09/12 03:22:50;;;;;;;39.67;22.42;;;;;;;13.29;72.11;100785.17;1744378;81;20893;-64
2021/09/12 03:25:19;;;;;;;37.53;21.65;;;;;;;13.29;72.20;100791.75;1744335;80;20928;-65
2021/09/12 03:27:47;;;;;;;46.18;23.10;;;;;;;13.29;72.25;100787.32;1744123;80;20928;-64
2021/09/12 03:30:14;;;;;;;34.18;20.32;;;;;;;13.30;72.29;100791.66;1744410;82;20933;-64
2021/09/12 03:32:43;;;;;;;29.57;19.42;;;;;;;13.31;72.37;100796.44;1744225;82;21422;-64
2021/09/12 03:35:11;;;;;;;35.15;20.92;;;;;;;13.33;72.40;100796.70;1744682;82;20948;-64
2021/09/12 03:37:39;;;;;;;38.85;20.27;;;;;;;13.36;72.35;100800.91;1744424;82;21184;-65
2021/09/12 03:40:08;;;;;;;34.08;20.48;;;;;;;13.37;72.28;100799.98;1744526;81;20885;-64
2021/09/12 03:42:34;;;;;;;33.40;19.42;;;;;;;13.38;72.22;100799.85;1744355;82;21374;-64
2021/09/12 03:45:01;;;;;;;39.25;20.20;;;;;;;13.40;72.04;100801.91;1744586;82;20940;-65
2021/09/12 03:47:28;;;;;;;35.98;20.57;;;;;;;13.42;71.88;100807.08;1746496;81;20865;-65
2021/09/12 03:49:55;;;;;;;35.43;19.85;;;;;;;13.43;71.74;100806.15;1750158;82;21155;-65
2021/09/12 03:52:24;;;;;;;33.73;19.92;;;;;;;13.45;71.60;100805.09;1750029;82;20943;-66
2021/09/12 03:54:50;;;;;;;39.50;20.72;;;;;;;13.50;71.52;100804.77;1750201;82;20893;-65
2021/09/12 03:57:17;;;;;;;30.88;20.00;;;;;;;13.54;71.44;100806.70;1750254;82;20931;-66
2021/09/12 03:59:45;;;;;;;43.35;19.55;;;;;;;13.58;71.37;100805.55;1750159;82;20976;-65
2021/09/12 04:02:12;;;;;;;31.68;20.02;;;;;;;13.60;71.25;100809.75;1750150;82;21195;-66
2021/09/12 04:04:39;;;;;;;33.53;20.32;;;;;;;13.63;71.07;100805.60;1750403;82;21414;-65
2021/09/12 04:07:08;;;;;;;41.83;21.25;;;;;;;13.69;70.93;100821.45;1750228;82;20920;-67
2021/09/12 04:09:36;;;;;;;42.53;22.30;;;;;;;13.73;70.91;100812.86;1749993;82;20896;-65
2021/09/12 04:12:05;;;;;;;33.78;20.90;;;;;;;13.76;70.93;100815.27;1750128;82;21392;-65
2021/09/12 04:14:32;;;;;;;33.92;20.20;;;;;;;13.78;71.02;100811.56;1750089;82;21269;-65
2021/09/12 04:16:59;;;;;;;32.63;20.32;;;;;;;13.82;71.10;100815.68;1750084;80;20927;-65
2021/09/12 04:19:27;;;;;;;38.33;20.75;;;;;;;13.86;71.15;100822.91;1750106;81;20880;-65
2021/09/12 04:21:55;;;;;;;33.75;21.73;;;;;;;13.91;71.14;100819.46;1750014;82;20975;-65
2021/09/12 04:24:24;;;;;;;29.02;20.32;;;;;;;13.98;71.08;100815.91;1750279;80;20921;-64
2021/09/12 04:26:51;;;;;;;28.32;20.10;;;;;;;14.03;71.03;100820.41;1750016;82;21341;-67
2021/09/12 04:29:20;;;;;;;37.70;22.22;;;;;;;14.09;70.96;100816.86;1750058;82;21319;-65
2021/09/12 04:31:47;;;;;;;35.95;20.97;;;;;;;14.18;70.79;100813.17;1750141;80;20923;-65
2021/09/12 04:34:14;;;;;;;34.70;22.85;;;;;;;14.27;70.75;100819.09;1750159;82;20944;-66
2021/09/12 04:36:42;;;;;;;35.85;20.27;;;;;;;14.35;70.62;100818.07;1750171;82;21457;-65
2021/09/12 04:39:10;;;;;;;34.23;21.87;;;;;;;14.44;70.46;100812.61;1750410;82;21996;-65
2021/09/12 04:41:37;;;;;;;28.80;20.68;;;;;;;14.54;70.43;100819.36;1750022;80;20892;-65
2021/09/12 04:44:06;;;;;;;36.40;22.60;;;;;;;14.62;70.40;100817.04;1750166;80;20948;-65
2021/09/12 04:46:33;;;;;;;35.03;21.07;;;;;;;14.72;70.44;100807.49;1750025;80;20940;-65
2021/09/12 04:49:00;;;;;;;40.98;23.20;;;;;;;14.83;70.36;100811.49;1750097;80;21031;-64
2021/09/12 04:51:29;;;;;;;35.55;22.30;;;;;;;14.95;70.33;100814.17;1750022;82;20881;-65
2021/09/12 04:53:56;;;;;;;37.63;21.93;;;;;;;15.09;70.27;100810.83;1749998;80;20889;-66
2021/09/12 04:56:23;;;;;;;39.23;25.37;;;;;;;15.32;69.99;100811.73;1750213;82;21370;-66
2021/09/12 04:58:52;;;;;;;41.33;27.62;;;;;;;15.65;69.53;100811.40;1750034;82;21038;-66
2021/09/12 05:01:20;;;;;;;44.40;29.50;;;;;;;16.03;68.81;100804.91;1749977;82;20841;-70
2021/09/12 05:03:47;;;;;;;38.55;27.65;;;;;;;16.47;67.98;100804.90;1750114;82;21244;-68
2021/09/12 05:06:14;;;;;;;40.98;29.42;;;;;;;16.93;67.05;100808.58;1750004;80;21508;-67
2021/09/12 05:08:42;;;;;;;37.03;27.27;;;;;;;17.42;66.17;100806.23;1750210;81;20959;-67
2021/09/12 05:11:10;;;;;;;36.20;25.43;;;;;;;17.92;64.96;100806.80;1750202;82;21417;-68
2021/09/12 05:13:39;;;;;;;39.30;26.30;;;;;;;18.42;63.86;100804.12;1750297;82;20885;-65
2021/09/12 05:16:05;;;;;;;32.53;24.60;;;;;;;18.88;62.70;100800.45;1750349;82;21146;-66
2021/09/12 05:18:34;;;;;;;30.65;22.73;;;;;;;19.33;61.55;100795.81;1750197;82;21445;-67
2021/09/12 05:21:02;;;;;;;32.93;22.45;;;;;;;19.78;60.48;100794.59;1750207;82;21027;-67
2021/09/12 05:23:29;;;;;;;42.00;23.12;;;;;;;20.16;59.41;100793.20;1750371;82;20893;-66
2021/09/12 05:25:56;;;;;;;39.35;24.18;;;;;;;20.48;58.50;100793.53;1750320;82;20932;-67
2021/09/12 05:28:23;;;;;;;31.50;21.27;;;;;;;20.82;57.70;100792.84;1750223;82;21227;-67
2021/09/12 05:30:51;;;;;;;33.70;22.55;;;;;;;21.17;56.98;100796.44;1750134;82;20904;-66
2021/09/12 05:33:18;;;;;;;27.13;19.82;;;;;;;21.53;56.05;100796.34;1750250;82;20935;-68
2021/09/12 05:35:47;;;;;;;25.85;20.25;;;;;;;21.87;55.17;100790.14;1750323;80;21501;-66
2021/09/12 05:38:14;;;;;;;25.68;20.15;;;;;;;22.15;54.35;100796.91;1750357;81;21209;-66
2021/09/12 05:40:40;;;;;;;28.57;19.87;;;;;;;22.36;53.68;100794.30;1750255;80;21805;-67
2021/09/12 05:43:07;;;;;;;32.88;19.45;;;;;;;22.47;53.20;100795.81;1750548;82;20916;-66
2021/09/12 05:45:35;;;;;;;29.45;21.35;;;;;;;22.54;52.96;100795.48;1750413;82;20932;-66
2021/09/12 05:48:02;;;;;;;27.62;19.12;;;;;;;22.55;52.82;100793.16;1745120;81;21023;-67
2021/09/12 05:50:31;;;;;;;27.58;20.90;;;;;;;22.58;52.67;100795.49;1736150;81;20916;-66
2021/09/12 05:52:58;;;;;;;29.42;20.37;;;;;;;22.60;52.64;100795.33;1736428;81;21100;-66
2021/09/12 05:55:25;;;;;;;24.65;19.50;;;;;;;22.62;52.66;100795.50;1736251;82;21395;-70
2021/09/12 05:57:51;;;;;;;23.65;20.25;;;;;;;22.58;52.59;100794.16;1736340;82;21055;-67
2021/09/12 06:00:20;;;;;;;27.02;20.45;;;;;;;22.50;52.71;100793.66;1736220;82;21407;-66
2021/09/12 06:02:47;;;;;;;27.20;19.00;;;;;;;22.40;52.89;100795.64;1736298;82;21711;-67
2021/09/12 06:05:14;;;;;;;22.27;18.50;;;;;;;22.25;53.11;100797.28;1736122;81;21142;-66
2021/09/12 06:07:41;;;;;;;23.62;19.05;;;;;;;22.08;53.66;100792.39;1736105;81;21424;-68
2021/09/12 06:10:11;;;;;;;30.35;21.00;;;;;;;21.96;54.06;100792.34;1736141;81;20857;-68
2021/09/12 06:12:38;;;;;;;27.37;19.73;;;;;;;21.90;54.34;100793.84;1736206;82;20944;-68
2021/09/12 06:15:06;;;;;;;27.37;20.15;;;;;;;21.88;54.44;100789.98;1736355;81;20937;-67
2021/09/12 06:17:33;;;;;;;23.42;18.82;;;;;;;21.89;54.44;100790.81;1736454;82;21121;-67
2021/09/12 06:20:02;;;;;;;22.40;18.40;;;;;;;21.88;54.54;100789.16;1735615;82;21238;-68
2021/09/12 06:22:29;;;;;;;22.10;19.20;;;;;;;21.85;54.54;100799.64;1735861;82;21373;-68
2021/09/12 06:24:56;;;;;;;27.07;19.12;;;;;;;21.87;54.52;100802.16;1735416;82;21019;-68
2021/09/12 06:27:24;;;;;;;26.07;17.92;;;;;;;21.90;54.45;100802.68;1736146;82;20932;-67
2021/09/12 06:29:51;;;;;;;24.15;18.30;;;;;;;21.96;54.18;100795.84;1736473;82;21589;-67
2021/09/12 06:32:17;;;;;;;25.50;17.32;;;;;;;21.94;54.07;100800.50;1735450;82;20987;-68
2021/09/12 06:34:44;;;;;;;26.15;18.10;;;;;;;22.18;54.20;100804.25;1735649;82;20917;-69
2021/09/12 06:37:11;;;;;;;27.05;18.77;;;;;;;22.63;53.86;100801.67;1735238;82;20917;-67
2021/09/12 06:39:39;;;;;;;24.55;19.32;;;;;;;23.17;53.02;100794.83;1737470;82;21371;-65
2021/09/12 06:42:06;;;;;;;28.55;19.85;;;;;;;23.79;52.04;100797.35;1738160;81;21140;-67
2021/09/12 06:44:34;;;;;;;24.80;17.55;;;;;;;24.41;50.87;100800.48;1737816;82;20905;-66
2021/09/12 06:47:01;;;;;;;25.00;16.62;;;;;;;25.05;49.48;100808.22;1737104;82;21407;-67
2021/09/12 06:49:28;;;;;;;27.85;18.80;;;;;;;25.65;48.03;100803.22;1735964;82;20866;-67
2021/09/12 06:51:57;;;;;;;26.12;18.70;;;;;;;26.19;46.79;100799.37;1736250;82;21411;-67
2021/09/12 06:54:24;;;;;;;24.18;18.35;;;;;;;26.63;45.43;100804.27;1736346;82;21117;-67
2021/09/12 06:56:51;;;;;;;25.57;18.92;;;;;;;27.04;44.67;100804.41;1736413;82;21357;-65
2021/09/12 06:59:18;;;;;;;34.65;19.55;;;;;;;27.44;43.62;100809.27;1736169;82;20928;-66
2021/09/12 07:01:46;;;;;;;31.33;20.88;;;;;;;27.80;42.90;100810.37;1736261;82;20941;-65
2021/09/12 07:04:13;;;;;;;29.75;19.55;;;;;;;28.12;42.04;100805.32;1736227;82;21018;-66
2021/09/12 07:06:40;;;;;;;26.52;18.65;;;;;;;28.45;41.26;100812.13;1736325;82;21144;-67
2021/09/12 07:09:07;;;;;;;26.42;16.75;;;;;;;28.73;40.48;100803.08;1736444;82;20933;-66
2021/09/12 07:11:37;;;;;;;23.40;18.73;;;;;;;28.97;40.03;100807.02;1735699;82;20913;-69
2021/09/12 07:14:05;;;;;;;25.82;18.02;;;;;;;29.22;39.31;100805.05;1736152;82;20967;-68
2021/09/12 07:16:33;;;;;;;24.52;17.25;;;;;;;29.37;37.86;100803.44;1736300;82;20999;-69
2021/09/12 07:19:07;;;;;;;26.82;17.32;;;;;;;29.40;38.00;100801.68;1736157;81;20861;-70
2021/09/12 07:21:30;;;;;;;25.65;16.48;;;;;;;29.55;37.39;100801.73;1736143;81;21434;-68
2021/09/12 07:23:57;;;;;;;19.60;15.43;;;;;;;29.79;36.73;100802.07;1736121;82;21016;-69
2021/09/12 07:26:24;;;;;;;19.55;14.05;;;;;;;29.94;36.43;100798.57;1736376;82;21466;-68
2021/09/12 07:28:51;;;;;;;19.35;14.65;;;;;;;30.12;36.15;100799.20;1736052;81;20893;-70
2021/09/12 07:31:20;;;;;;;27.62;16.85;;;;;;;30.32;35.57;100804.52;1736087;82;20893;-71
2021/09/12 07:33:48;;;;;;;29.00;17.75;;;;;;;30.44;35.05;100803.82;1736036;81;20838;-71
2021/09/12 07:36:15;;;;;;;26.85;19.10;;;;;;;30.50;34.66;100802.42;1736415;81;20979;-70
2021/09/12 07:38:42;;;;;;;26.90;17.82;;;;;;;30.44;33.85;100799.27;1735915;82;21003;-66
2021/09/12 07:41:11;;;;;;;25.92;18.67;;;;;;;30.24;34.07;100797.16;1736418;81;20893;-69
2021/09/12 07:43:38;;;;;;;25.52;16.90;;;;;;;30.28;34.59;100794.36;1736015;81;21566;-69
2021/09/12 07:46:05;;;;;;;25.20;17.30;;;;;;;30.43;34.47;100792.17;1736438;81;21438;-70
2021/09/12 07:48:33;;;;;;;23.32;15.43;;;;;;;30.62;34.42;100793.09;1736141;82;21016;-69
2021/09/12 07:51:02;;;;;;;24.27;15.90;;;;;;;30.79;34.12;100791.99;1736114;82;20980;-68
2021/09/12 07:53:29;;;;;;;26.68;14.80;;;;;;;30.96;33.97;100786.34;1736069;82;20846;-68
2021/09/12 07:55:56;;;;;;;26.90;15.03;;;;;;;31.08;33.64;100785.11;1736263;81;21156;-69
2021/09/12 07:58:23;;;;;;;24.43;16.35;;;;;;;31.18;33.08;100775.92;1735974;81;20866;-70
2021/09/12 08:00:51;;;;;;;30.97;16.93;;;;;;;31.27;32.74;100779.16;1736401;82;20845;-68
2021/09/12 08:03:18;;;;;;;31.75;17.50;;;;;;;31.38;32.43;100783.83;1735984;82;20884;-66
2021/09/12 08:05:47;;;;;;;28.10;16.32;;;;;;;31.44;32.01;100785.36;1736483;82;21367;-64
2021/09/12 08:08:14;;;;;;;28.98;16.87;;;;;;;31.40;32.41;100787.14;1736111;82;21143;-65
2021/09/12 08:10:42;;;;;;;22.40;15.80;;;;;;;31.55;32.28;100784.09;1736044;82;21011;-65
2021/09/12 08:13:09;;;;;;;26.73;15.88;;;;;;;31.72;32.24;100778.86;1736124;82;20962;-65
2021/09/12 08:15:38;;;;;;;23.05;15.98;;;;;;;31.67;31.72;100772.48;1736170;82;20932;-66
2021/09/12 08:18:05;;;;;;;27.42;15.25;;;;;;;31.52;31.63;100779.64;1736177;81;20889;-67
2021/09/12 08:20:33;;;;;;;33.90;15.40;;;;;;;31.48;31.84;100777.08;1735943;82;21209;-66
2021/09/12 08:23:00;;;;;;;23.18;14.28;;;;;;;31.55;31.87;100775.11;1736002;82;20929;-67
2021/09/12 08:25:29;;;;;;;25.08;14.03;;;;;;;31.60;31.82;100775.28;1736108;82;21394;-68
2021/09/12 08:27:56;;;;;;;24.50;13.62;;;;;;;31.46;31.88;100767.84;1735901;82;20995;-66
2021/09/12 08:30:23;;;;;;;19.95;12.18;;;;;;;31.37;31.68;100772.70;1736404;82;20925;-66
2021/09/12 08:32:50;;;;;;;18.73;11.57;;;;;;;31.44;31.72;100769.09;1736104;82;21147;-67
2021/09/12 08:35:17;;;;;;;19.00;11.95;;;;;;;31.47;31.20;100771.38;1736044;82;20909;-68
2021/09/12 08:37:44;;;;;;;28.75;13.98;;;;;;;31.55;31.63;100763.77;1736111;82;20933;-69
2021/09/12 08:40:13;;;;;;;17.15;11.48;;;;;;;31.65;31.08;100767.81;1736310;82;21402;-69
2021/09/12 08:42:43;;;;;;;19.02;11.30;;;;;;;31.74;31.43;100767.80;1736065;82;20880;-70
2021/09/12 08:45:11;;;;;;;20.75;10.43;;;;;;;31.92;31.11;100764.22;1736459;82;21157;-67
2021/09/12 08:47:40;;;;;;;24.15;11.30;;;;;;;32.09;31.13;100771.22;1735932;82;20885;-67
2021/09/12 08:50:10;;;;;;;19.92;11.25;;;;;;;32.26;30.84;100768.15;1747600;81;20896;-67
2021/09/12 08:52:37;;;;;;;19.12;10.88;;;;;;;32.39;30.72;100771.16;1750066;82;20892;-66
2021/09/12 08:55:06;;;;;;;26.45;10.75;;;;;;;32.40;30.43;100766.05;1750165;82;20927;-69
2021/09/12 08:57:33;;;;;;;22.60;11.05;;;;;;;32.37;30.88;100765.13;1750281;81;21793;-68
2021/09/12 09:00:00;;;;;;;12.43;9.38;;;;;;;32.46;31.29;100766.98;1750406;82;21524;-67
2021/09/12 09:03:50;;;;;;;16.52;10.35;;;;;;;32.73;31.25;100756.56;1798625;79;23103;-68
2021/09/12 09:06:19;;;;;;;16.90;9.55;;;;;;;32.70;30.98;100756.47;1695035;81;21437;-66
2021/09/12 09:08:56;;;;;;;18.55;10.25;;;;;;;32.71;31.14;100751.89;1758361;81;21394;-67
2021/09/12 09:11:35;;;;;;;17.10;9.90;;;;;;;32.75;31.32;100753.05;1758210;81;20976;-67
2021/09/12 09:14:21;;;;;;;16.23;8.43;;;;;;;32.74;31.13;100752.77;1758246;80;20967;-69
2021/09/12 09:16:50;;;;;;;16.50;9.85;;;;;;;32.67;31.12;100747.45;1758450;81;21409;-68
2021/09/12 09:19:18;;;;;;;18.00;9.10;;;;;;;32.72;30.84;100745.37;1758370;81;20876;-67
2021/09/12 09:21:47;;;;;;;17.50;11.10;;;;;;;32.95;30.99;100746.75;1758336;81;21156;-67
2021/09/12 09:24:22;;;;;;;17.82;9.75;;;;;;;33.22;30.47;100743.01;1758156;81;20971;-66
2021/09/12 09:26:57;;;;;;;14.95;7.75;;;;;;;33.53;29.92;100742.80;1758326;80;21381;-66
2021/09/12 09:29:27;;;;;;;12.03;6.17;;;;;;;33.83;29.14;100735.80;1758373;81;21414;-67
2021/09/12 09:32:05;;;;;;;11.33;4.28;;;;;;;34.16;28.68;100733.70;1758308;81;21023;-68
2021/09/12 09:34:33;;;;;;;10.78;5.60;;;;;;;34.39;25.71;100735.43;1758410;81;22234;-66
2021/09/12 09:37:17;;;;;;;18.10;9.00;;;;;;;34.64;26.33;100728.76;1758286;81;20884;-67
2021/09/12 09:39:52;;;;;;;15.95;8.13;;;;;;;34.82;25.90;100735.31;1758313;81;20964;-67
2021/09/12 09:42:39;;;;;;;16.50;8.83;;;;;;;35.06;26.17;100730.47;1758599;81;20972;-67
2021/09/12 09:45:14;;;;;;;21.17;9.85;;;;;;;35.39;25.96;100727.89;1757806;80;21326;-66
2021/09/12 09:47:47;;;;;;;18.23;10.30;;;;;;;35.73;25.92;100721.77;1758625;80;21151;-66
2021/09/12 09:50:25;;;;;;;22.80;8.85;;;;;;;35.86;24.65;100727.33;1758315;81;20869;-66
2021/09/12 09:52:53;;;;;;;16.00;8.30;;;;;;;35.77;24.61;100724.23;1759472;80;21440;-67
2021/09/12 09:55:24;;;;;;;18.92;9.38;;;;;;;35.74;24.47;100722.59;1760664;81;21003;-65
2021/09/12 09:57:53;;;;;;;17.45;8.78;;;;;;;35.65;24.62;100718.94;1760720;81;21018;-65
2021/09/12 10:00:22;;;;;;;12.45;6.80;;;;;;;35.56;24.52;100725.09;1760495;81;21164;-67
2021/09/12 10:02:50;;;;;;;16.40;6.67;;;;;;;35.41;24.23;100718.91;1758301;81;20869;-66
2021/09/12 10:05:17;;;;;;;13.15;6.17;;;;;;;35.25;24.22;100724.73;1758535;81;20920;-66
2021/09/12 10:07:46;;;;;;;10.95;5.67;;;;;;;35.17;24.37;100720.53;1758609;81;20885;-66
2021/09/12 10:10:14;;;;;;;9.08;4.83;;;;;;;35.17;24.10;100717.80;1758627;81;20968;-67
2021/09/12 10:12:48;;;;;;;8.43;4.60;;;;;;;35.22;24.08;100717.07;1758816;80;21142;-67
2021/09/12 10:15:23;;;;;;;9.45;4.60;;;;;;;35.16;23.52;100708.53;1757859;81;20889;-69
2021/09/12 10:17:52;;;;;;;7.53;4.45;;;;;;;35.20;24.51;100709.68;1757831;81;20955;-68
2021/09/12 10:20:25;;;;;;;7.62;3.85;;;;;;;35.26;23.80;100703.19;1758129;81;20884;-66
2021/09/12 10:23:04;;;;;;;10.93;5.45;;;;;;;35.24;23.58;100705.34;1758272;81;20983;-67
2021/09/12 10:25:49;;;;;;;6.53;4.00;;;;;;;35.19;23.72;100707.47;1757916;81;21118;-67
2021/09/12 10:28:31;;;;;;;7.00;4.28;;;;;;;35.16;23.33;100705.27;1757956;80;21398;-66
2021/09/12 10:30:59;;;;;;;5.47;3.40;;;;;;;35.12;23.50;100702.75;1718523;83;21424;-67
2021/09/12 10:33:27;;;;;;;7.97;3.40;;;;;;;35.15;23.47;100698.69;1721803;83;20892;-67
2021/09/12 10:36:02;;;;;;;7.25;4.25;;;;;;;35.23;24.04;100702.34;1721841;83;20891;-66
2021/09/12 10:38:37;;;;;;;10.82;4.50;;;;;;;35.38;23.62;100698.98;1722256;83;21796;-66
2021/09/12 10:41:13;;;;;;;10.05;3.75;;;;;;;35.56;21.64;100689.62;1721764;83;21021;-67
2021/09/12 10:43:45;;;;;;;13.55;4.78;;;;;;;35.69;21.24;100690.06;1721883;82;20958;-68
2021/09/12 10:46:17;;;;;;;10.45;5.67;;;;;;;35.78;21.88;100687.70;1721612;83;21022;-67
2021/09/12 10:48:53;;;;;;;;;;;;;;;35.86;21.61;100683.66;1724446;83;20991;-67
2021/09/12 10:51:27;;;;;;;16.90;6.20;;;;;;;36.02;22.17;100684.61;1701287;84;20608;-66
2021/09/12 10:54:01;;;;;;;9.55;4.92;;;;;;;36.24;22.28;100682.66;1703829;84;21086;-66
2021/09/12 10:56:30;;;;;;;8.88;3.92;;;;;;;36.48;22.32;100688.54;1703840;84;20901;-68
2021/09/12 10:59:05;;;;;;;5.87;3.02;;;;;;;36.69;20.51;100689.53;1703653;84;20960;-67
2021/09/12 11:01:40;;;;;;;8.65;3.02;;;;;;;36.68;20.00;100682.41;1703831;84;21004;-67
2021/09/12 11:04:07;;;;;;;4.90;3.17;;;;;;;36.69;19.85;100677.23;1696421;83;21869;-68
2021/09/12 11:06:42;;;;;;;10.20;3.58;;;;;;;36.80;20.33;100682.73;1708592;84;20886;-67
2021/09/12 11:09:25;;;;;;;9.85;3.12;;;;;;;36.92;19.90;100675.16;1708901;84;20893;-67
2021/09/12 11:11:56;;;;;;;9.28;5.80;;;;;;;36.96;20.01;100671.36;1708416;84;20905;-67
2021/09/12 11:14:23;;;;;;;15.58;6.22;;;;;;;36.95;20.15;100669.70;1708764;84;20957;-68
2021/09/12 11:16:51;;;;;;;9.58;4.55;;;;;;;36.98;19.60;100674.09;1708588;84;21790;-68
2021/09/12 11:19:18;;;;;;;5.22;2.85;;;;;;;36.93;20.18;100681.73;1708762;84;20901;-67